createdAt,value
2022-08-05T00:01:54.792Z,28.88
2022-08-05T00:04:35.891Z,28.58
2022-08-05T00:07:26.873Z,28.30
2022-08-05T00:09:52.852Z,28.08
2022-08-05T00:12:22.981Z,27.98
2022-08-05T00:14:51.902Z,27.78
2022-08-05T00:17:20.374Z,27.71
2022-08-05T00:20:02.026Z,27.72
2022-08-05T00:22:31.256Z,27.70
2022-08-05T00:24:59.591Z,27.75
2022-08-05T00:27:35.955Z,27.76
2022-08-05T00:30:11.576Z,27.76
2022-08-05T00:32:41.161Z,27.56
2022-08-05T00:35:10.073Z,27.39
2022-08-05T00:37:52.645Z,27.24
2022-08-05T00:40:28.287Z,26.98
2022-08-05T00:43:02.449Z,26.74
2022-08-05T00:45:38.596Z,26.55
2022-08-05T00:48:14.445Z,26.45
2022-08-05T00:50:46.072Z,26.44
2022-08-05T00:54:00.195Z,26.37
2022-08-05T00:56:08.039Z,26.28
2022-08-05T00:58:37.050Z,26.10
2022-08-05T01:01:08.499Z,26.06
2022-08-05T01:03:38.341Z,26.08
2022-08-05T01:06:14.038Z,26.11
2022-08-05T01:08:44.513Z,26.05
2022-08-05T01:11:22.283Z,25.93
2022-08-05T01:14:08.533Z,25.79
2022-08-05T01:17:00.761Z,25.73
2022-08-05T01:20:12.522Z,25.63
2022-08-05T01:23:00.431Z,25.49
2022-08-05T01:26:00.800Z,25.39
2022-08-05T01:28:39.886Z,25.34
2022-08-05T01:31:32.696Z,25.28
2022-08-05T01:34:31.721Z,25.14
2022-08-05T01:37:25.207Z,24.93
2022-08-05T01:39:58.969Z,24.82
2022-08-05T01:42:30.761Z,24.66
2022-08-05T01:45:03.338Z,24.59
2022-08-05T01:47:39.235Z,24.57
2022-08-05T01:50:17.366Z,24.46
2022-08-05T01:52:49.859Z,24.40
2022-08-05T01:55:21.656Z,24.38
2022-08-05T01:58:30.032Z,24.34
2022-08-05T02:00:46.760Z,24.40
2022-08-05T02:03:40.691Z,24.37
2022-08-05T02:06:12.688Z,24.37
2022-08-05T02:08:59.744Z,24.22
2022-08-05T02:11:47.042Z,24.13
2022-08-05T02:14:22.600Z,24.08
2022-08-05T02:16:54.605Z,23.93
2022-08-05T02:19:28.853Z,23.81
2022-08-05T02:22:26.412Z,23.69
2022-08-05T02:25:04.692Z,23.66
2022-08-05T02:27:57.896Z,23.61
2022-08-05T02:30:29.921Z,23.58
2022-08-05T02:33:00.521Z,23.54
2022-08-05T02:35:33.238Z,23.57
2022-08-05T02:38:09.424Z,23.62
2022-08-05T02:40:42.371Z,23.61
2022-08-05T02:43:15.439Z,23.58
2022-08-05T02:45:52.164Z,23.47
2022-08-05T02:48:29.096Z,23.42
2022-08-05T02:51:02.441Z,23.31
2022-08-05T02:53:38.941Z,23.33
2022-08-05T02:56:10.601Z,23.19
2022-08-05T02:58:51.186Z,23.07
2022-08-05T03:01:26.223Z,23.05
2022-08-05T03:04:11.765Z,23.05
2022-08-05T03:06:55.890Z,23.00
2022-08-05T03:09:37.502Z,22.97
2022-08-05T03:12:07.958Z,22.93
2022-08-05T03:14:45.626Z,22.95
2022-08-05T03:17:14.770Z,22.94
2022-08-05T03:19:45.811Z,22.82
2022-08-05T03:22:18.887Z,22.82
2022-08-05T03:25:02.312Z,22.82
2022-08-05T03:27:59.617Z,22.82
2022-08-05T03:30:34.125Z,22.82
2022-08-05T03:33:05.842Z,22.82
2022-08-05T03:35:41.111Z,22.72
2022-08-05T03:38:14.496Z,22.70
2022-08-05T03:40:48.893Z,22.71
2022-08-05T03:44:09.122Z,22.72
2022-08-05T03:46:08.073Z,22.75
2022-08-05T03:48:36.942Z,22.76
2022-08-05T03:52:37.398Z,22.75
2022-08-05T03:55:52.150Z,22.71
2022-08-05T03:57:41.603Z,22.69
2022-08-05T04:00:15.851Z,22.61
2022-08-05T04:02:57.532Z,22.60
2022-08-05T04:05:34.599Z,22.54
2022-08-05T04:08:14.898Z,22.49
2022-08-05T04:10:59.171Z,22.44
2022-08-05T04:13:50.103Z,22.42
2022-08-05T04:16:25.359Z,22.43
2022-08-05T04:19:00.651Z,22.42
2022-08-05T04:22:10.401Z,22.41
2022-08-05T04:24:19.274Z,22.35
2022-08-05T04:26:51.766Z,22.33
2022-08-05T04:29:20.345Z,22.34
2022-08-05T04:31:48.696Z,22.32
2022-08-05T04:34:33.863Z,22.28
2022-08-05T04:37:03.425Z,22.24
2022-08-05T04:39:32.722Z,22.19
2022-08-05T04:42:04.200Z,22.15
2022-08-05T04:44:32.680Z,22.13
2022-08-05T04:47:09.068Z,22.11
2022-08-05T04:50:01.999Z,22.08
2022-08-05T04:52:29.165Z,22.05
2022-08-05T04:55:14.471Z,22.00
2022-08-05T04:57:47.459Z,21.89
2022-08-05T05:00:17.250Z,21.88
2022-08-05T05:02:46.084Z,21.87
2022-08-05T05:05:26.333Z,21.87
2022-08-05T05:08:02.357Z,21.81
2022-08-05T05:10:33.367Z,21.76
2022-08-05T05:13:04.379Z,21.73
2022-08-05T05:15:57.895Z,21.73
2022-08-05T05:18:28.214Z,21.74
2022-08-05T05:21:01.650Z,21.71
2022-08-05T05:23:39.184Z,21.68
2022-08-05T05:26:18.372Z,21.65
2022-08-05T05:28:47.075Z,21.63
2022-08-05T05:31:15.560Z,21.55
2022-08-05T05:33:59.452Z,21.52
2022-08-05T05:36:31.050Z,21.52
2022-08-05T05:39:00.469Z,21.50
2022-08-05T05:41:40.459Z,21.47
2022-08-05T05:44:36.105Z,21.45
2022-08-05T05:47:04.461Z,21.44
2022-08-05T05:49:41.643Z,21.41
2022-08-05T05:52:12.999Z,21.40
2022-08-05T05:54:55.810Z,21.39
2022-08-05T05:57:24.202Z,21.40
2022-08-05T05:59:52.885Z,21.40
2022-08-05T06:02:32.413Z,21.39
2022-08-05T06:05:10.586Z,21.36
2022-08-05T06:07:58.017Z,21.35
2022-08-05T06:10:36.352Z,21.35
2022-08-05T06:13:06.440Z,21.35
2022-08-05T06:16:30.074Z,21.27
2022-08-05T06:18:31.003Z,21.22
2022-08-05T06:21:01.486Z,21.22
2022-08-05T06:23:32.086Z,21.19
2022-08-05T06:26:21.183Z,21.17
2022-08-05T06:28:49.994Z,21.14
2022-08-05T06:31:22.016Z,21.13
2022-08-05T06:34:07.036Z,21.11
2022-08-05T06:36:57.920Z,21.10
2022-08-05T06:39:27.015Z,21.07
2022-08-05T06:41:59.682Z,21.07
2022-08-05T06:44:28.522Z,21.05
2022-08-05T06:46:57.165Z,21.03
2022-08-05T06:50:01.718Z,21.01
2022-08-05T06:52:36.569Z,20.98
2022-08-05T06:55:02.903Z,20.96
2022-08-05T06:57:57.318Z,20.91
2022-08-05T07:00:24.521Z,20.89
2022-08-05T07:02:54.206Z,20.89
2022-08-05T07:05:27.663Z,20.87
2022-08-05T07:08:07.010Z,20.79
2022-08-05T07:10:53.509Z,20.81
2022-08-05T07:13:59.549Z,20.85
2022-08-05T07:17:56.837Z,20.89
2022-08-05T07:22:28.812Z,20.91
2022-08-05T07:25:23.216Z,20.92
2022-08-05T07:27:58.557Z,20.89
2022-08-05T07:30:34.004Z,20.87
2022-08-05T07:33:09.955Z,20.81
2022-08-05T07:36:01.937Z,20.76
2022-08-05T07:38:34.170Z,20.72
2022-08-05T07:42:08.122Z,20.70
2022-08-05T07:43:57.122Z,20.69
2022-08-05T07:46:30.854Z,20.66
2022-08-05T07:49:05.454Z,20.64
2022-08-05T07:51:40.671Z,20.60
2022-08-05T07:54:23.267Z,20.57
2022-08-05T07:57:14.751Z,20.56
2022-08-05T07:59:44.081Z,20.52
2022-08-05T08:02:17.600Z,20.48
2022-08-05T08:04:48.585Z,20.46
2022-08-05T08:07:22.414Z,20.39
2022-08-05T08:09:54.947Z,20.39
2022-08-05T08:12:37.024Z,20.38
2022-08-05T08:15:09.453Z,20.37
2022-08-05T08:17:46.208Z,20.33
2022-08-05T08:20:42.517Z,20.30
2022-08-05T08:23:59.809Z,20.25
2022-08-05T08:25:59.831Z,20.28
2022-08-05T08:28:37.085Z,20.27
2022-08-05T08:31:08.561Z,20.28
2022-08-05T08:33:38.487Z,20.28
2022-08-05T08:36:38.919Z,20.26
2022-08-05T08:38:58.934Z,20.24
2022-08-05T08:41:51.736Z,20.24
2022-08-05T08:45:16.465Z,20.24
2022-08-05T08:47:21.775Z,20.23
2022-08-05T08:50:30.416Z,20.18
2022-08-05T08:52:57.840Z,20.16
2022-08-05T08:55:32.173Z,20.16
2022-08-05T08:58:18.001Z,20.15
2022-08-05T09:00:54.684Z,20.13
2022-08-05T09:03:23.487Z,20.09
2022-08-05T09:06:09.132Z,20.09
2022-08-05T09:08:41.525Z,20.08
2022-08-05T09:11:14.120Z,20.09
2022-08-05T09:14:09.361Z,20.06
2022-08-05T09:16:34.885Z,20.06
2022-08-05T09:19:06.792Z,20.02
2022-08-05T09:22:18.534Z,20.03
2022-08-05T09:24:24.882Z,19.99
2022-08-05T09:26:57.306Z,19.98
2022-08-05T09:29:47.774Z,19.95
2022-08-05T09:32:51.333Z,19.95
2022-08-05T09:35:26.901Z,19.95
2022-08-05T09:38:16.403Z,19.94
2022-08-05T09:40:53.813Z,19.92
2022-08-05T09:43:42.182Z,19.95
2022-08-05T09:46:31.125Z,19.96
2022-08-05T09:49:06.858Z,19.97
2022-08-05T09:51:39.987Z,19.97
2022-08-05T09:54:10.339Z,19.93
2022-08-05T09:56:40.720Z,19.90
2022-08-05T09:59:27.456Z,19.85
2022-08-05T10:01:58.378Z,19.83
2022-08-05T10:04:39.510Z,19.82
2022-08-05T10:07:20.119Z,19.81
2022-08-05T10:10:04.241Z,19.80
2022-08-05T10:12:51.284Z,19.80
2022-08-05T10:15:36.676Z,19.81
2022-08-05T10:18:13.686Z,19.80
2022-08-05T10:20:42.691Z,19.79
2022-08-05T10:23:34.181Z,19.75
2022-08-05T10:26:14.872Z,19.73
2022-08-05T10:28:46.339Z,19.67
2022-08-05T10:32:47.963Z,19.67
2022-08-05T10:34:11.440Z,19.68
2022-08-05T10:36:42.164Z,19.61
2022-08-05T10:39:24.870Z,19.62
2022-08-05T10:42:22.774Z,19.56
2022-08-05T10:45:21.530Z,19.54
2022-08-05T10:48:29.904Z,19.54
2022-08-05T10:51:04.240Z,19.54
2022-08-05T10:53:38.405Z,19.48
2022-08-05T10:56:25.423Z,19.48
2022-08-05T10:59:03.846Z,19.49
2022-08-05T11:01:54.900Z,19.48
2022-08-05T11:04:36.502Z,19.46
2022-08-05T11:07:10.321Z,19.45
2022-08-05T11:09:49.425Z,19.41
2022-08-05T11:12:37.760Z,19.36
2022-08-05T11:16:00.210Z,19.33
2022-08-05T11:18:32.743Z,19.37
2022-08-05T11:21:11.169Z,19.39
2022-08-05T11:24:04.102Z,19.38
2022-08-05T11:26:32.391Z,19.35
2022-08-05T11:29:11.841Z,19.36
2022-08-05T11:31:56.648Z,19.36
2022-08-05T11:34:47.447Z,19.35
2022-08-05T11:38:29.001Z,19.34
2022-08-05T11:41:14.091Z,19.29
2022-08-05T11:44:40.906Z,19.25
2022-08-05T11:47:10.512Z,19.25
2022-08-05T11:49:43.005Z,19.21
2022-08-05T11:52:12.220Z,19.19
2022-08-05T11:54:43.523Z,19.19
2022-08-05T11:57:25.391Z,19.17
2022-08-05T12:00:05.911Z,19.12
2022-08-05T12:02:36.901Z,19.11
2022-08-05T12:05:18.349Z,19.08
2022-08-05T12:08:07.861Z,19.05
2022-08-05T12:10:45.435Z,19.02
2022-08-05T12:13:47.675Z,18.96
2022-08-05T12:16:14.999Z,18.95
2022-08-05T12:18:49.426Z,18.94
2022-08-05T12:21:26.890Z,18.90
2022-08-05T12:24:07.039Z,18.89
2022-08-05T12:26:46.159Z,18.86
2022-08-05T12:29:17.931Z,18.85
2022-08-05T12:32:02.226Z,18.84
2022-08-05T12:34:38.085Z,18.82
2022-08-05T12:37:17.354Z,18.79
2022-08-05T12:39:53.831Z,18.77
2022-08-05T12:42:25.117Z,18.78
2022-08-05T12:44:54.000Z,18.76
2022-08-05T12:47:31.043Z,18.75
2022-08-05T12:50:03.968Z,18.74
2022-08-05T12:52:39.209Z,18.74
2022-08-05T12:55:23.815Z,18.72
2022-08-05T12:58:52.625Z,18.70
2022-08-05T13:02:03.463Z,18.67
2022-08-05T13:03:43.001Z,18.66
2022-08-05T13:06:18.480Z,18.66
2022-08-05T13:08:51.740Z,18.62
2022-08-05T13:12:02.257Z,18.59
2022-08-05T13:14:19.578Z,18.58
2022-08-05T13:16:57.592Z,18.60
2022-08-05T13:19:40.264Z,18.58
2022-08-05T13:22:28.363Z,18.57
2022-08-05T13:25:05.601Z,18.57
2022-08-05T13:27:50.211Z,18.57
2022-08-05T13:30:35.221Z,18.56
2022-08-05T13:33:04.806Z,18.56
2022-08-05T13:35:51.185Z,18.54
2022-08-05T13:38:30.784Z,18.52
2022-08-05T13:41:02.715Z,18.53
2022-08-05T13:43:45.722Z,18.54
2022-08-05T13:46:37.787Z,18.54
2022-08-05T13:49:10.555Z,18.56
2022-08-05T13:51:45.871Z,18.58
2022-08-05T13:54:21.027Z,18.59
2022-08-05T13:56:54.644Z,18.59
2022-08-05T13:59:27.293Z,18.59
2022-08-05T14:02:00.591Z,18.60
2022-08-05T14:05:00.571Z,18.64
2022-08-05T14:08:00.497Z,18.66
2022-08-05T14:10:28.529Z,18.69
2022-08-05T14:12:57.761Z,18.73
2022-08-05T14:16:05.116Z,18.73
2022-08-05T14:18:18.444Z,18.75
2022-08-05T14:20:54.719Z,18.76
2022-08-05T14:23:25.263Z,18.78
2022-08-05T14:25:59.607Z,18.83
2022-08-05T14:28:30.277Z,18.85
2022-08-05T14:31:01.774Z,18.86
2022-08-05T14:33:59.381Z,18.89
2022-08-05T14:36:21.647Z,18.90
2022-08-05T14:38:50.812Z,18.90
2022-08-05T14:41:19.705Z,18.87
2022-08-05T14:44:01.539Z,18.88
2022-08-05T14:46:35.274Z,18.90
2022-08-05T14:49:07.317Z,18.92
2022-08-05T14:51:42.660Z,18.92
2022-08-05T14:54:28.311Z,18.93
2022-08-05T14:56:59.768Z,18.93
2022-08-05T14:59:35.387Z,18.91
2022-08-05T15:02:15.914Z,18.90
2022-08-05T15:04:47.639Z,18.90
2022-08-05T15:08:11.607Z,18.95
2022-08-05T15:10:09.545Z,18.97
2022-08-05T15:12:59.716Z,19.01
2022-08-05T15:15:39.728Z,19.06
2022-08-05T15:18:15.439Z,19.12
2022-08-05T15:20:46.015Z,19.16
2022-08-05T15:23:14.716Z,19.26
2022-08-05T15:25:52.008Z,19.38
2022-08-05T15:28:27.559Z,19.45
2022-08-05T15:30:56.469Z,19.53
2022-08-05T15:34:19.074Z,19.56
2022-08-05T15:36:17.667Z,19.62
2022-08-05T15:41:00.281Z,19.72
2022-08-05T15:41:55.999Z,19.75
2022-08-05T15:44:30.423Z,19.77
2022-08-05T15:47:00.182Z,19.76
2022-08-05T15:49:55.097Z,19.79
2022-08-05T15:52:52.070Z,19.92
2022-08-05T15:55:15.491Z,20.06
2022-08-05T15:57:45.294Z,20.09
2022-08-05T16:00:16.864Z,20.13
2022-08-05T16:02:54.754Z,20.23
2022-08-05T16:05:28.371Z,20.30
2022-08-05T16:07:57.167Z,20.36
2022-08-05T16:10:26.959Z,20.43
2022-08-05T16:12:56.048Z,20.57
2022-08-05T16:15:25.172Z,20.72
2022-08-05T16:18:01.143Z,20.82
2022-08-05T16:20:32.961Z,20.91
2022-08-05T16:23:02.251Z,21.03
2022-08-05T16:25:34.154Z,21.10
2022-08-05T16:28:10.292Z,21.20
2022-08-05T16:30:39.299Z,21.33
2022-08-05T16:33:10.098Z,21.47
2022-08-05T16:35:42.436Z,21.53
2022-08-05T16:38:23.969Z,21.56
2022-08-05T16:41:00.135Z,21.66
2022-08-05T16:43:34.971Z,21.72
2022-08-05T16:46:13.066Z,21.81
2022-08-05T16:48:53.314Z,21.92
2022-08-05T16:51:24.193Z,22.03
2022-08-05T16:54:04.897Z,22.12
2022-08-05T16:56:41.558Z,22.19
2022-08-05T16:59:11.922Z,22.27
2022-08-05T17:01:53.884Z,22.37
2022-08-05T17:04:28.825Z,22.42
2022-08-05T17:07:01.721Z,22.49
2022-08-05T17:09:57.770Z,22.58
2022-08-05T17:12:50.502Z,22.72
2022-08-05T17:15:10.415Z,22.85
2022-08-05T17:17:45.318Z,22.96
2022-08-05T17:20:17.866Z,23.03
2022-08-05T17:22:46.265Z,23.13
2022-08-05T17:25:39.434Z,23.22
2022-08-05T17:28:09.133Z,23.36
2022-08-05T17:30:50.820Z,23.43
2022-08-05T17:33:21.549Z,23.52
2022-08-05T17:36:07.948Z,23.61
2022-08-05T17:38:39.935Z,23.74
2022-08-05T17:41:11.662Z,23.87
2022-08-05T17:43:57.716Z,24.03
2022-08-05T17:46:26.282Z,24.14
2022-08-05T17:48:56.142Z,24.19
2022-08-05T17:51:26.297Z,24.24
2022-08-05T17:53:55.039Z,24.28
2022-08-05T17:56:23.371Z,24.41
2022-08-05T17:58:56.969Z,24.55
2022-08-05T18:01:25.534Z,24.65
2022-08-05T18:04:03.816Z,24.72
2022-08-05T18:06:32.609Z,24.82
2022-08-05T18:09:03.691Z,24.86
2022-08-05T18:11:33.891Z,24.93
2022-08-05T18:14:13.636Z,25.04
2022-08-05T18:16:51.962Z,25.21
2022-08-05T18:19:23.186Z,25.26
2022-08-05T18:22:07.656Z,25.41
2022-08-05T18:24:39.604Z,25.53
2022-08-05T18:27:18.635Z,25.60
2022-08-05T18:29:54.001Z,25.70
2022-08-05T18:32:28.185Z,25.83
2022-08-05T18:34:58.878Z,25.97
2022-08-05T18:37:34.619Z,26.14
2022-08-05T18:40:31.065Z,26.31
2022-08-05T18:43:00.720Z,26.43
2022-08-05T18:45:41.541Z,26.52
2022-08-05T18:48:11.995Z,26.71
2022-08-05T18:52:06.652Z,26.83
2022-08-05T18:54:06.445Z,27.05
2022-08-05T18:56:38.078Z,27.27
2022-08-05T18:59:42.046Z,27.44
2022-08-05T19:01:57.148Z,27.62
2022-08-05T19:04:27.851Z,27.72
2022-08-05T19:06:56.189Z,27.76
2022-08-05T19:09:24.560Z,27.77
2022-08-05T19:12:00.628Z,27.82
2022-08-05T19:14:52.229Z,27.90
2022-08-05T19:17:19.612Z,27.94
2022-08-05T19:19:50.427Z,28.01
2022-08-05T19:22:18.972Z,28.10
2022-08-05T19:24:54.353Z,28.23
2022-08-05T19:27:28.020Z,28.39
2022-08-05T19:29:59.121Z,28.56
2022-08-05T19:32:28.472Z,28.64
2022-08-05T19:34:58.176Z,28.75
2022-08-05T19:37:29.901Z,28.83
2022-08-05T19:40:15.751Z,28.91
2022-08-05T19:43:04.694Z,29.02
2022-08-05T19:45:36.632Z,29.11
2022-08-05T19:48:06.259Z,29.27
2022-08-05T19:50:35.880Z,29.51
2022-08-05T19:53:09.619Z,29.79
2022-08-05T19:56:15.398Z,29.95
2022-08-05T19:58:30.059Z,30.04
2022-08-05T20:00:59.905Z,30.17
2022-08-05T20:03:40.813Z,30.18
2022-08-05T20:06:15.393Z,30.03
2022-08-05T20:08:47.549Z,29.93
2022-08-05T20:11:18.117Z,29.97
2022-08-05T20:13:58.703Z,30.05
2022-08-05T20:16:36.470Z,30.08
2022-08-05T20:19:05.597Z,29.92
2022-08-05T20:21:35.210Z,29.72
2022-08-05T20:24:07.290Z,29.67
2022-08-05T20:26:39.933Z,29.61
2022-08-05T20:29:27.724Z,29.72
2022-08-05T20:31:58.312Z,29.49
2022-08-05T20:34:28.325Z,29.44
2022-08-05T20:36:56.567Z,29.47
2022-08-05T20:39:24.918Z,29.51
2022-08-05T20:42:04.285Z,29.63
2022-08-05T20:44:37.724Z,29.85
2022-08-05T20:47:07.916Z,29.82
2022-08-05T20:49:39.442Z,29.76
2022-08-05T20:52:10.696Z,30.01
2022-08-05T20:54:43.173Z,29.93
2022-08-05T20:57:43.762Z,30.08
2022-08-05T21:00:34.930Z,30.37
2022-08-05T21:03:07.251Z,30.71
2022-08-05T21:05:54.361Z,30.80
2022-08-05T21:08:41.530Z,30.89
2022-08-05T21:11:12.390Z,31.00
2022-08-05T21:13:55.645Z,31.03
2022-08-05T21:16:29.556Z,31.07
2022-08-05T21:18:59.871Z,31.28
2022-08-05T21:21:43.909Z,31.39
2022-08-05T21:24:15.363Z,31.31
2022-08-05T21:26:50.542Z,31.32
2022-08-05T21:29:23.567Z,31.32
2022-08-05T21:31:55.568Z,31.20
2022-08-05T21:34:24.397Z,31.19
2022-08-05T21:36:52.826Z,31.34
2022-08-05T21:39:26.707Z,31.55
2022-08-05T21:42:01.291Z,31.61
2022-08-05T21:44:32.081Z,31.41
2022-08-05T21:47:01.356Z,31.25
2022-08-05T21:49:58.621Z,31.18
2022-08-05T21:52:27.328Z,31.21
2022-08-05T21:55:06.028Z,31.15
2022-08-05T21:57:36.561Z,31.23
2022-08-05T22:00:13.066Z,31.18
2022-08-05T22:02:43.702Z,31.30
2022-08-05T22:05:13.537Z,31.48
2022-08-05T22:07:59.482Z,31.47
2022-08-05T22:10:30.989Z,31.42
2022-08-05T22:13:09.259Z,31.58
2022-08-05T22:16:01.991Z,31.60
2022-08-05T22:18:39.043Z,31.62
2022-08-05T22:21:19.190Z,31.32
2022-08-05T22:24:09.064Z,31.23
2022-08-05T22:27:16.702Z,31.13
2022-08-05T22:29:45.909Z,31.24
2022-08-05T22:32:17.392Z,31.28
2022-08-05T22:34:45.941Z,31.21
2022-08-05T22:37:14.637Z,31.22
2022-08-05T22:39:42.892Z,31.23
2022-08-05T22:42:21.503Z,31.31
2022-08-05T22:44:57.012Z,30.99
2022-08-05T22:47:29.857Z,30.82
2022-08-05T22:50:19.514Z,30.56
2022-08-05T22:52:52.809Z,30.50
2022-08-05T22:55:22.138Z,30.46
2022-08-05T22:57:52.403Z,30.37
2022-08-05T23:00:22.173Z,30.38
2022-08-05T23:02:52.938Z,30.30
2022-08-05T23:05:22.767Z,30.18
2022-08-05T23:07:52.341Z,29.84
2022-08-05T23:10:24.038Z,29.82
2022-08-05T23:12:54.471Z,29.66
2022-08-05T23:15:29.214Z,29.30
2022-08-05T23:18:03.728Z,29.06
2022-08-05T23:20:37.497Z,28.99
2022-08-05T23:23:08.881Z,28.80
2022-08-05T23:25:52.294Z,28.60
2022-08-05T23:28:29.285Z,28.36
2022-08-05T23:31:15.884Z,28.28
2022-08-05T23:34:05.012Z,28.12
2022-08-05T23:36:38.553Z,27.89
2022-08-05T23:39:07.247Z,27.68
2022-08-05T23:41:37.369Z,27.66
2022-08-05T23:44:09.685Z,27.72
2022-08-05T23:46:39.270Z,27.61
2022-08-05T23:49:16.133Z,27.46
2022-08-05T23:52:05.725Z,27.30
2022-08-05T23:54:38.366Z,27.27
2022-08-05T23:57:07.921Z,27.20
